Roncesvalles Navarra

latitud = 43° 00' 31''N | longitud = 001° 19' 32''W
940 metros sobre el nivel del mar | datos mensuales

Fecha, hora, temperatura, viento dirección y velocidad, humedad y presión.

  • 23-04-2018 10:00:00 | 12.80°C | Sur |3.00 km/h | 92.00% | 0.00 hPa
  • 23-04-2018 09:00:00 | 10.40°C | Sur |2.00 km/h | 96.00% | 0.00 hPa
  • 23-04-2018 08:00:00 | 8.80°C | Norte |2.00 km/h | 96.00% | 0.00 hPa
  • 23-04-2018 07:00:00 | 7.90°C | Calma |0.00 km/h | 98.00% | 0.00 hPa
  • 23-04-2018 06:00:00 | 8.30°C | Calma |0.00 km/h | 95.00% | 0.00 hPa
  • 23-04-2018 05:00:00 | 8.10°C | Calma |0.00 km/h | 97.00% | 0.00 hPa
  • 23-04-2018 04:00:00 | 8.60°C | Calma |0.00 km/h | 98.00% | 0.00 hPa
  • 23-04-2018 03:00:00 | 8.50°C | Calma |0.00 km/h | 98.00% | 0.00 hPa
  • 23-04-2018 02:00:00 | 9.00°C | Calma |0.00 km/h | 97.00% | 0.00 hPa
  • 23-04-2018 01:00:00 | 9.40°C | Calma |0.00 km/h | 97.00% | 0.00 hPa
  • 23-04-2018 00:00:00 | 10.20°C | Calma |0.00 km/h | 96.00% | 0.00 hPa
  • 22-04-2018 23:00:00 | 11.50°C | Noroeste |6.00 km/h | 94.00% | 0.00 hPa
  • 22-04-2018 22:00:00 | 13.80°C | Calma |0.00 km/h | 78.00% | 0.00 hPa
  • 22-04-2018 21:00:00 | 15.40°C | Sur |2.00 km/h | 65.00% | 0.00 hPa
  • 22-04-2018 20:00:00 | 16.90°C | Sur |3.00 km/h | 66.00% | 0.00 hPa
  • 22-04-2018 19:00:00 | 19.70°C | Sur |7.00 km/h | 51.00% | 0.00 hPa
  • 22-04-2018 18:00:00 | 20.60°C | Sudoeste |4.00 km/h | 47.00% | 0.00 hPa
  • 22-04-2018 17:00:00 | 18.40°C | Sur |8.00 km/h | 55.00% | 0.00 hPa
  • 22-04-2018 16:00:00 | 19.00°C | Sudoeste |6.00 km/h | 51.00% | 0.00 hPa
  • 22-04-2018 15:00:00 | 20.00°C | Sudoeste |7.00 km/h | 46.00% | 0.00 hPa
  • 22-04-2018 14:00:00 | 19.20°C | Sudoeste |11.00 km/h | 44.00% | 0.00 hPa
  • 22-04-2018 13:00:00 | 19.50°C | Sudoeste |10.00 km/h | 43.00% | 0.00 hPa
  • 22-04-2018 12:00:00 | 18.60°C | Sur |12.00 km/h | 42.00% | 0.00 hPa
  • 22-04-2018 11:00:00 | 17.40°C | Sur |12.00 km/h | 48.00% | 0.00 hPa